Airport View

Enter AWOS ICAO identifier for current METAR.

ex. KFNL

KETB 300430Z AUTO 34006KT 10SM OVC045 00/M06 A3011 RMK AO2

30 Oct 2020 04:33

Frequency: 120.0

Phone: 262-334-6161

Other Area AWOS: KMWC - KUES - KSBM - KUNU

TAF AMD KUES 300256Z 3003/3024 01005KT P6SM OVC045 FM300700 VRB04KT P6SM BKN050 FM301400 VRB04KT P6SM FEW050